Time;durP1;ratioP1;P1;durP2;ratioP2;P2;SDS_P1;SDS_P2;PMS_P1;PMS_P2;Temp;Humidity;BMP_temperature;BMP_pressure;BME280_temperature;BME280_humidity;BME280_pressure;Samples;Min_cycle;Max_cycle;Signal;HPM_P1;HPM_P2
2022/05/28 00:02:02;;;;;;;9.27;2.55;;;11.50;99.90;;;;;;5129786;27;20043;-65
2022/05/28 00:04:31;;;;;;;12.02;1.70;;;11.40;99.90;;;;;;5067044;28;20048;-65
2022/05/28 00:06:56;;;;;;;6.03;1.42;;;11.30;99.90;;;;;;5101780;28;20395;-66
2022/05/28 00:09:22;;;;;;;4.93;1.17;;;11.10;99.90;;;;;;5128788;27;20074;-66
2022/05/28 00:11:48;;;;;;;4.95;1.52;;;10.80;99.90;;;;;;5108194;28;20048;-66
2022/05/28 00:14:13;;;;;;;7.03;1.50;;;10.70;99.90;;;;;;5101393;28;20097;-66
2022/05/28 00:16:41;;;;;;;7.55;1.58;;;10.70;99.90;;;;;;5127786;27;20052;-66
2022/05/28 00:19:07;;;;;;;8.52;2.03;;;10.60;99.90;;;;;;5094102;28;20127;-65
2022/05/28 00:21:35;;;;;;;6.40;1.55;;;10.60;99.90;;;;;;5114583;28;20059;-65
2022/05/28 00:24:00;;;;;;;5.88;1.40;;;10.50;99.90;;;;;;5136227;27;20187;-63
2022/05/28 00:26:26;;;;;;;8.57;1.90;;;10.70;99.90;;;;;;5113375;28;20482;-64
2022/05/28 00:28:52;;;;;;;10.23;1.65;;;10.50;99.90;;;;;;5145115;27;20553;-65
2022/05/28 00:31:18;;;;;;;8.00;1.60;;;10.50;99.90;;;;;;5087646;28;20044;-64
2022/05/28 00:33:43;;;;;;;7.45;1.80;;;10.40;99.90;;;;;;5090937;28;20118;-64
2022/05/28 00:36:11;;;;;;;8.05;1.67;;;10.40;99.90;;;;;;5109925;28;20153;-65
2022/05/28 00:38:39;;;;;;;9.48;1.77;;;10.00;99.90;;;;;;5134393;27;20048;-65
2022/05/28 00:41:05;;;;;;;4.63;1.48;;;10.30;99.90;;;;;;5098377;28;20078;-64
2022/05/28 00:43:31;;;;;;;8.43;1.48;;;10.30;99.90;;;;;;5106464;28;20434;-63
2022/05/28 00:46:22;;;;;;;7.35;1.60;;;10.30;99.90;;;;;;5126966;27;20052;-65
2022/05/28 00:48:53;;;;;;;7.80;1.52;;;10.30;99.90;;;;;;5104803;27;20063;-64
2022/05/28 00:51:33;;;;;;;4.88;1.50;;;10.30;99.90;;;;;;5142975;27;20112;-64
2022/05/28 00:54:01;;;;;;;5.53;1.58;;;10.40;99.90;;;;;;5089059;28;20052;-64
2022/05/28 00:56:28;;;;;;;6.50;1.30;;;10.30;99.90;;;;;;5088712;28;20056;-64
2022/05/28 00:58:54;;;;;;;9.05;1.42;;;10.20;99.90;;;;;;5089933;27;20052;-64
2022/05/28 01:01:25;;;;;;;4.10;1.50;;;10.20;99.90;;;;;;5088692;28;20560;-66
2022/05/28 01:04:19;;;;;;;6.65;1.40;;;10.10;99.90;;;;;;5078716;28;20047;-64
2022/05/28 01:07:08;;;;;;;6.60;1.55;;;10.10;99.90;;;;;;5091311;28;20051;-66
2022/05/28 01:09:44;;;;;;;8.00;1.67;;;10.00;99.90;;;;;;5099414;28;20124;-66
2022/05/28 01:12:21;;;;;;;7.00;1.40;;;10.00;99.90;;;;;;5112405;28;20224;-65
2022/05/28 01:15:02;;;;;;;7.13;1.60;;;9.90;99.90;;;;;;5132666;27;20487;-64
2022/05/28 01:17:35;;;;;;;7.38;1.92;;;9.90;99.90;;;;;;5077601;28;20122;-65
2022/05/28 01:20:07;;;;;;;2.55;1.15;;;9.80;99.90;;;;;;5088584;28;20067;-66
2022/05/28 01:22:51;;;;;;;8.75;1.35;;;9.80;99.90;;;;;;5146635;27;20438;-67
2022/05/28 01:25:45;;;;;;;10.98;1.50;;;9.80;99.90;;;;;;5103041;28;20055;-67
2022/05/28 01:28:18;;;;;;;7.60;1.52;;;9.70;99.90;;;;;;5115975;27;20050;-65
2022/05/28 01:30:46;;;;;;;6.95;1.55;;;9.60;99.90;;;;;;5141777;27;20119;-66
2022/05/28 01:33:14;;;;;;;6.72;1.77;;;9.60;99.90;;;;;;5107408;28;20052;-66
2022/05/28 01:35:40;;;;;;;5.03;1.25;;;9.60;99.90;;;;;;5093478;28;20115;-66
2022/05/28 01:38:08;;;;;;;7.70;1.30;;;9.50;99.90;;;;;;5106107;28;20059;-65
2022/05/28 01:40:35;;;;;;;7.40;2.28;;;9.50;99.90;;;;;;5127831;27;20063;-66
2022/05/28 01:43:05;;;;;;;5.70;1.40;;;9.50;99.90;;;;;;5091585;28;20059;-65
2022/05/28 01:45:32;;;;;;;8.23;1.80;;;9.40;99.90;;;;;;5084667;28;20091;-66
2022/05/28 01:48:05;;;;;;;5.63;1.60;;;9.40;99.90;;;;;;5088154;28;20048;-65
2022/05/28 01:50:34;;;;;;;7.05;2.00;;;9.40;99.90;;;;;;5120359;27;20056;-65
2022/05/28 01:53:03;;;;;;;12.23;1.90;;;9.40;99.90;;;;;;5108460;28;20105;-65
2022/05/28 01:55:30;;;;;;;10.38;1.60;;;9.40;99.90;;;;;;5089663;28;20040;-67
2022/05/28 01:57:56;;;;;;;6.90;1.70;;;9.30;99.90;;;;;;5085238;28;20078;-66
2022/05/28 02:00:21;;;;;;;9.70;1.95;;;9.30;99.90;;;;;;5092312;28;20492;-66
2022/05/28 02:02:47;;;;;;;9.57;1.58;;;9.40;99.90;;;;;;5090644;28;22463;-66
2022/05/28 02:05:13;;;;;;;10.02;1.85;;;9.30;99.90;;;;;;5093728;28;20049;-64
2022/05/28 02:07:38;;;;;;;9.32;2.20;;;9.30;99.90;;;;;;5070959;28;20193;-65
2022/05/28 02:10:13;;;;;;;9.10;2.20;;;9.20;99.90;;;;;;5079103;28;20059;-66
2022/05/28 02:12:53;;;;;;;9.57;1.60;;;9.20;99.90;;;;;;5091506;28;20407;-66
2022/05/28 02:15:40;;;;;;;10.75;1.70;;;9.10;99.90;;;;;;5095076;28;20063;-66
2022/05/28 02:18:13;;;;;;;8.98;1.45;;;9.20;99.90;;;;;;5133615;27;20085;-66
2022/05/28 02:20:50;;;;;;;9.10;1.83;;;9.20;99.90;;;;;;5105909;28;20108;-65
2022/05/28 02:23:22;;;;;;;8.90;1.67;;;9.10;99.90;;;;;;5110183;28;20059;-65
2022/05/28 02:26:17;;;;;;;7.18;1.40;;;9.10;99.90;;;;;;5115448;28;20545;-65
2022/05/28 02:28:45;;;;;;;4.68;1.50;;;9.10;99.90;;;;;;5102905;28;20433;-65
2022/05/28 02:31:17;;;;;;;7.65;2.10;;;9.00;99.90;;;;;;5096905;28;20056;-65
2022/05/28 02:33:43;;;;;;;;;;;9.00;99.90;;;;;;5137149;27;20515;-66
2022/05/28 02:36:11;;;;;;;7.43;1.85;;;9.00;99.90;;;;;;5113557;28;19935;-66
2022/05/28 02:38:36;;;;;;;7.70;1.77;;;9.00;99.90;;;;;;5116447;28;20495;-66
2022/05/28 02:41:02;;;;;;;4.80;1.30;;;9.00;99.90;;;;;;5126583;27;20067;-65
2022/05/28 02:43:31;;;;;;;5.90;1.52;;;9.00;99.90;;;;;;5148653;27;20387;-66
2022/05/28 02:46:04;;;;;;;6.25;1.38;;;9.00;99.90;;;;;;5107280;28;20634;-65
2022/05/28 02:48:30;;;;;;;7.18;1.40;;;9.00;99.90;;;;;;5096255;28;20100;-65
2022/05/28 02:51:10;;;;;;;9.65;1.75;;;8.90;99.90;;;;;;5107498;28;20101;-66
2022/05/28 02:53:36;;;;;;;6.53;1.48;;;8.90;99.90;;;;;;5117263;28;20401;-66
2022/05/28 02:56:02;;;;;;;8.30;1.65;;;8.90;99.90;;;;;;5097572;28;20138;-65
2022/05/28 02:58:29;;;;;;;11.10;1.85;;;8.90;99.90;;;;;;5093580;28;20472;-65
2022/05/28 03:00:54;;;;;;;13.35;2.38;;;8.90;99.90;;;;;;5106450;28;20063;-66
2022/05/28 03:03:20;;;;;;;9.57;1.50;;;8.90;99.90;;;;;;5097745;28;20153;-65
2022/05/28 03:05:50;;;;;;;5.93;2.05;;;8.90;99.90;;;;;;5112076;28;20079;-65
2022/05/28 03:08:17;;;;;;;6.80;1.60;;;8.90;99.90;;;;;;5103430;28;20047;-65
2022/05/28 03:10:44;;;;;;;7.53;1.75;;;8.80;99.90;;;;;;5112475;28;20047;-65
2022/05/28 03:13:10;;;;;;;17.50;2.90;;;8.80;99.90;;;;;;5094507;28;20091;-66
2022/05/28 03:15:36;;;;;;;10.65;1.80;;;8.80;99.90;;;;;;5096876;28;20486;-66
2022/05/28 03:18:01;;;;;;;11.13;1.98;;;8.80;99.90;;;;;;5114343;28;20039;-66
2022/05/28 03:20:28;;;;;;;8.27;1.98;;;8.90;99.90;;;;;;5112742;28;20519;-65
2022/05/28 03:22:54;;;;;;;7.25;1.92;;;8.90;99.90;;;;;;5115461;28;20052;-66
2022/05/28 03:25:20;;;;;;;14.07;3.08;;;8.80;99.90;;;;;;5085475;28;20052;-66
2022/05/28 03:27:45;;;;;;;7.20;1.77;;;8.90;99.90;;;;;;5092964;28;20044;-67
2022/05/28 03:30:11;;;;;;;8.40;2.00;;;8.90;99.90;;;;;;5092558;28;20051;-66
2022/05/28 03:32:37;;;;;;;6.90;1.48;;;8.80;99.90;;;;;;5093386;28;20488;-65
2022/05/28 03:35:03;;;;;;;9.18;1.63;;;8.80;99.90;;;;;;5092817;28;20110;-65
2022/05/28 03:37:29;;;;;;;8.27;2.05;;;8.80;99.90;;;;;;5089726;28;20056;-65
2022/05/28 03:39:54;;;;;;;10.65;1.67;;;8.80;99.90;;;;;;5078106;28;20496;-66
2022/05/28 03:42:20;;;;;;;9.50;2.15;;;8.80;99.90;;;;;;5089489;28;20136;-65
2022/05/28 03:44:45;;;;;;;7.65;1.70;;;8.80;99.90;;;;;;5095332;28;20051;-65
2022/05/28 03:47:11;;;;;;;6.72;2.28;;;8.80;99.90;;;;;;5092002;28;20050;-66
2022/05/28 03:49:40;;;;;;;5.82;1.83;;;8.80;99.90;;;;;;5091623;28;20268;-67
2022/05/28 03:52:06;;;;;;;8.73;1.95;;;8.80;99.90;;;;;;5117426;27;20107;-66
2022/05/28 03:54:32;;;;;;;10.63;1.95;;;8.80;99.90;;;;;;5113684;27;20056;-66
2022/05/28 03:57:02;;;;;;;10.38;1.80;;;8.80;99.90;;;;;;5093249;28;20400;-66
2022/05/28 03:59:28;;;;;;;9.48;1.95;;;8.80;99.90;;;;;;5092039;28;20050;-66
2022/05/28 04:01:53;;;;;;;5.32;1.60;;;8.80;99.90;;;;;;5125560;27;20036;-66
2022/05/28 04:04:20;;;;;;;10.07;1.95;;;8.80;99.90;;;;;;5094861;28;20051;-66
2022/05/28 04:06:46;;;;;;;9.60;1.90;;;8.80;99.90;;;;;;5093628;28;20047;-66
2022/05/28 04:09:11;;;;;;;9.45;1.83;;;8.80;99.90;;;;;;5102441;28;20045;-66
2022/05/28 04:11:38;;;;;;;9.68;1.83;;;8.90;99.90;;;;;;5095833;28;20044;-65
2022/05/28 04:14:04;;;;;;;8.82;2.22;;;8.90;99.90;;;;;;5092610;28;20052;-66
2022/05/28 04:16:31;;;;;;;6.80;1.88;;;8.90;99.90;;;;;;5127102;27;20082;-66
2022/05/28 04:18:56;;;;;;;10.85;2.40;;;9.00;99.90;;;;;;5148979;27;20388;-67
2022/05/28 04:21:22;;;;;;;11.30;2.03;;;9.00;99.90;;;;;;5110245;28;20050;-66
2022/05/28 04:23:47;;;;;;;9.15;2.53;;;9.10;99.90;;;;;;5147465;27;20123;-65
2022/05/28 04:26:13;;;;;;;9.23;2.28;;;9.10;99.90;;;;;;5126699;27;20047;-66
2022/05/28 04:28:38;;;;;;;11.57;2.03;;;9.20;99.90;;;;;;5110487;28;20532;-66
2022/05/28 04:31:04;;;;;;;6.75;1.60;;;9.30;99.90;;;;;;5097384;28;20470;-66
2022/05/28 04:33:29;;;;;;;11.50;2.55;;;9.40;99.90;;;;;;5093410;28;20052;-66
2022/05/28 04:35:55;;;;;;;10.30;1.92;;;9.40;99.90;;;;;;5093351;28;20044;-65
2022/05/28 04:38:23;;;;;;;8.50;2.00;;;9.50;99.90;;;;;;5091915;28;20063;-65
2022/05/28 04:40:49;;;;;;;7.78;2.15;;;9.50;99.90;;;;;;5086030;28;20066;-66
2022/05/28 04:43:14;;;;;;;12.15;2.33;;;9.50;99.90;;;;;;5092814;28;20470;-66
2022/05/28 04:45:40;;;;;;;13.55;2.45;;;9.50;99.90;;;;;;5090709;28;21121;-66
2022/05/28 04:48:06;;;;;;;10.10;2.00;;;9.60;99.90;;;;;;5108693;27;20048;-66
2022/05/28 04:50:31;;;;;;;7.85;1.85;;;9.60;99.90;;;;;;5089190;28;20395;-64
2022/05/28 04:52:57;;;;;;;11.52;2.55;;;9.70;99.90;;;;;;5091330;28;20044;-64
2022/05/28 04:55:22;;;;;;;8.75;1.98;;;9.70;99.90;;;;;;5126586;27;20059;-66
2022/05/28 04:57:48;;;;;;;10.40;2.00;;;9.80;99.90;;;;;;5091048;28;20372;-66
2022/05/28 05:00:17;;;;;;;14.50;2.10;;;9.90;99.90;;;;;;5101575;28;20489;-67
2022/05/28 05:02:42;;;;;;;8.98;1.70;;;9.90;99.90;;;;;;5111095;28;20105;-67
2022/05/28 05:05:08;;;;;;;10.77;1.92;;;10.00;99.90;;;;;;5094046;28;20055;-66
2022/05/28 05:07:34;;;;;;;10.32;2.17;;;10.10;99.90;;;;;;5085243;28;20062;-67
2022/05/28 05:09:59;;;;;;;9.07;2.28;;;10.20;99.90;;;;;;5109949;28;20043;-66
2022/05/28 05:12:25;;;;;;;10.05;1.95;;;10.30;99.90;;;;;;5130271;27;20109;-67
2022/05/28 05:14:51;;;;;;;8.55;1.77;;;10.30;99.90;;;;;;5089924;28;20074;-67
2022/05/28 05:17:17;;;;;;;10.05;2.05;;;10.40;99.90;;;;;;5130975;27;20051;-67
2022/05/28 05:19:43;;;;;;;7.60;2.08;;;10.40;99.90;;;;;;5134642;27;20052;-68
2022/05/28 05:22:08;;;;;;;8.10;2.00;;;10.40;99.90;;;;;;5094357;28;20056;-67
2022/05/28 05:24:34;;;;;;;9.43;1.85;;;10.40;99.90;;;;;;5094895;28;20044;-67
2022/05/28 05:27:01;;;;;;;8.65;2.75;;;10.50;99.90;;;;;;5089629;28;20044;-67
2022/05/28 05:29:27;;;;;;;8.75;1.75;;;10.60;99.90;;;;;;5084118;28;20056;-67
2022/05/28 05:31:52;;;;;;;11.52;2.17;;;10.80;99.90;;;;;;5126014;27;20099;-64
2022/05/28 05:34:18;;;;;;;7.53;1.95;;;10.90;99.90;;;;;;5145591;27;20403;-66
2022/05/28 05:36:43;;;;;;;9.38;2.08;;;11.00;99.90;;;;;;5092100;28;20056;-66
2022/05/28 05:39:09;;;;;;;9.25;2.20;;;11.00;99.90;;;;;;5109052;28;20399;-66
2022/05/28 05:41:40;;;;;;;9.27;2.20;;;11.00;99.90;;;;;;5079729;28;20438;-66
2022/05/28 05:44:06;;;;;;;8.32;2.10;;;11.00;99.90;;;;;;5082770;28;20568;-66
2022/05/28 05:46:32;;;;;;;6.38;2.22;;;10.90;99.90;;;;;;5088886;28;20119;-66
2022/05/28 05:48:57;;;;;;;7.70;1.98;;;10.90;99.90;;;;;;5091092;28;20052;-66
2022/05/28 05:51:23;;;;;;;8.48;2.58;;;10.90;99.90;;;;;;5091030;28;20079;-66
2022/05/28 05:53:48;;;;;;;10.50;1.83;;;10.90;99.90;;;;;;5088942;28;20468;-65
2022/05/28 05:56:14;;;;;;;13.90;2.47;;;10.90;99.90;;;;;;5106755;28;20070;-65
2022/05/28 05:58:39;;;;;;;12.27;2.58;;;10.90;99.90;;;;;;5091744;28;20233;-66
2022/05/28 06:01:05;;;;;;;13.18;3.45;;;10.90;99.90;;;;;;5113249;27;20070;-66
2022/05/28 06:03:33;;;;;;;8.38;2.22;;;11.00;99.90;;;;;;5096076;28;20042;-65
2022/05/28 06:05:59;;;;;;;9.52;2.45;;;11.20;99.90;;;;;;5092574;28;20052;-65
2022/05/28 06:08:25;;;;;;;11.43;2.08;;;11.60;99.90;;;;;;5100294;28;20306;-65
2022/05/28 06:10:51;;;;;;;7.25;1.83;;;11.60;99.90;;;;;;5110744;28;20079;-65
2022/05/28 06:13:17;;;;;;;9.23;1.85;;;11.60;99.90;;;;;;5115940;28;20451;-66
2022/05/28 06:15:42;;;;;;;7.93;1.75;;;11.60;99.90;;;;;;5089456;28;20558;-65
2022/05/28 06:18:08;;;;;;;9.20;2.55;;;11.60;99.90;;;;;;5095412;28;20499;-65
2022/05/28 06:20:34;;;;;;;9.07;2.08;;;11.70;99.90;;;;;;5084679;28;20134;-66
2022/05/28 06:23:01;;;;;;;9.63;2.10;;;11.80;99.90;;;;;;5084054;28;20083;-66
2022/05/28 06:25:28;;;;;;;6.90;1.50;;;11.80;99.90;;;;;;5089299;28;20056;-65
2022/05/28 06:27:53;;;;;;;2.38;1.20;;;11.70;99.90;;;;;;5089913;28;20117;-65
2022/05/28 06:30:19;;;;;;;6.18;1.70;;;11.70;99.90;;;;;;5086943;28;20040;-65
2022/05/28 06:32:45;;;;;;;4.25;1.25;;;11.70;99.90;;;;;;5089172;28;20048;-66
2022/05/28 06:35:10;;;;;;;5.72;1.30;;;11.70;99.90;;;;;;5119811;27;20056;-66
2022/05/28 06:37:37;;;;;;;4.55;1.30;;;11.70;99.90;;;;;;5093336;28;20051;-65
2022/05/28 06:40:04;;;;;;;7.15;1.55;;;11.70;99.90;;;;;;5097348;27;20040;-65
2022/05/28 06:43:20;;;;;;;4.00;1.42;;;11.90;99.90;;;;;;5091461;28;20055;-66
2022/05/28 06:45:46;;;;;;;5.43;1.70;;;12.50;99.90;;;;;;5094791;28;20052;-66
2022/05/28 06:48:11;;;;;;;8.10;1.70;;;12.30;99.90;;;;;;5076947;28;20124;-65
2022/05/28 06:53:21;;;;;;;8.65;1.73;;;12.30;99.90;;;;;;5116771;28;20048;-65
2022/05/28 06:55:47;;;;;;;8.02;2.03;;;12.30;99.90;;;;;;5149356;27;20051;-64
2022/05/28 06:58:13;;;;;;;9.27;1.90;;;12.40;99.90;;;;;;5116602;28;20049;-65
2022/05/28 07:00:40;;;;;;;8.23;2.20;;;12.60;99.90;;;;;;5146300;27;21397;-65
2022/05/28 07:03:15;;;;;;;8.43;2.15;;;12.60;99.90;;;;;;5092252;28;20044;-66
2022/05/28 07:05:42;;;;;;;9.75;2.35;;;12.60;99.90;;;;;;5094662;28;20124;-65
2022/05/28 07:08:07;;;;;;;6.70;2.03;;;12.70;99.90;;;;;;5093651;28;20058;-65
2022/05/28 07:10:33;;;;;;;9.50;2.10;;;12.80;99.90;;;;;;5089457;28;20052;-66
2022/05/28 07:12:59;;;;;;;9.95;2.22;;;12.60;99.90;;;;;;5083490;28;20072;-67
2022/05/28 07:15:25;;;;;;;9.85;2.33;;;12.20;99.90;;;;;;5084562;28;20124;-67
2022/05/28 07:17:51;;;;;;;8.10;2.75;;;12.10;99.90;;;;;;5090435;28;20516;-69
2022/05/28 07:20:17;;;;;;;8.23;2.55;;;11.90;99.90;;;;;;5091375;28;20043;-68
2022/05/28 07:22:45;;;;;;;6.82;2.25;;;;;;;;;;5104662;28;20047;-67
2022/05/28 07:25:12;;;;;;;9.98;2.20;;;11.20;99.90;;;;;;5073744;28;20093;-66
2022/05/28 07:27:37;;;;;;;6.22;1.98;;;11.60;99.90;;;;;;5092354;28;20036;-67
2022/05/28 07:30:04;;;;;;;6.78;2.08;;;11.40;99.90;;;;;;5096985;28;20086;-66
2022/05/28 07:32:30;;;;;;;4.72;1.83;;;11.30;99.90;;;;;;5094478;28;20626;-67
2022/05/28 07:34:57;;;;;;;8.80;2.25;;;11.10;99.90;;;;;;5094905;28;20047;-68
2022/05/28 07:37:27;;;;;;;7.13;2.08;;;11.00;99.90;;;;;;5094637;28;20056;-67
2022/05/28 07:39:53;;;;;;;6.63;2.00;;;11.00;99.90;;;;;;5094969;28;20123;-67
2022/05/28 07:42:19;;;;;;;10.23;2.17;;;10.90;99.90;;;;;;5094455;28;20476;-67
2022/05/28 07:44:44;;;;;;;6.03;1.90;;;10.90;99.90;;;;;;5094966;28;20086;-66
2022/05/28 07:47:10;;;;;;;8.68;2.15;;;10.90;99.90;;;;;;5094271;28;20060;-68
2022/05/28 07:49:36;;;;;;;5.35;1.70;;;11.00;99.90;;;;;;5093828;28;20040;-66
2022/05/28 07:52:02;;;;;;;6.75;1.90;;;11.00;99.90;;;;;;5094738;28;20059;-66
2022/05/28 07:54:28;;;;;;;7.22;2.53;;;11.10;99.90;;;;;;5095187;28;20082;-66
2022/05/28 07:56:54;;;;;;;4.03;1.70;;;11.30;99.90;;;;;;5092789;28;20072;-66
2022/05/28 07:59:20;;;;;;;7.45;1.83;;;11.60;99.90;;;;;;5093617;28;20139;-66
2022/05/28 08:01:45;;;;;;;7.95;2.10;;;11.80;99.90;;;;;;5094049;28;20101;-66
2022/05/28 08:04:11;;;;;;;6.47;1.80;;;11.90;99.90;;;;;;5093902;28;20048;-65
2022/05/28 08:06:38;;;;;;;6.65;2.15;;;12.20;99.90;;;;;;5093162;28;20428;-65
2022/05/28 08:09:05;;;;;;;7.15;2.10;;;12.40;99.90;;;;;;5109828;28;20391;-65
2022/05/28 08:11:30;;;;;;;11.88;2.40;;;12.60;99.90;;;;;;5127335;27;20458;-65
2022/05/28 08:14:02;;;;;;;9.40;2.47;;;12.90;99.90;;;;;;5109937;28;20044;-65
2022/05/28 08:17:18;;;;;;;14.82;2.50;;;13.10;99.90;;;;;;5109532;28;20040;-65
2022/05/28 08:19:44;;;;;;;7.15;2.20;;;13.20;99.90;;;;;;5076735;28;20097;-66
2022/05/28 08:24:59;;;;;;;9.75;2.38;;;13.70;99.90;;;;;;5093160;28;20040;-66
2022/05/28 08:27:25;;;;;;;7.22;2.80;;;13.90;99.90;;;;;;5109562;28;20391;-66
2022/05/28 08:29:51;;;;;;;13.07;2.88;;;14.40;99.90;;;;;;5110006;28;20131;-65
2022/05/28 08:32:18;;;;;;;9.73;2.38;;;13.80;99.90;;;;;;5074843;28;20050;-66
2022/05/28 08:34:44;;;;;;;9.60;2.92;;;13.00;99.90;;;;;;5092863;28;20395;-66
2022/05/28 08:37:11;;;;;;;9.43;2.33;;;13.50;99.90;;;;;;5091929;28;20054;-66
2022/05/28 08:39:39;;;;;;;11.15;2.20;;;13.90;99.90;;;;;;5092594;28;20511;-66
2022/05/28 08:42:12;;;;;;;8.55;2.53;;;13.30;99.90;;;;;;5092671;28;20036;-66
2022/05/28 08:44:40;;;;;;;10.70;2.40;;;13.30;99.90;;;;;;5110238;28;20121;-66
2022/05/28 08:47:21;;;;;;;10.00;2.13;;;13.40;99.90;;;;;;5092032;28;20453;-66
2022/05/28 08:49:50;;;;;;;13.00;2.53;;;13.00;99.90;;;;;;5092559;28;20052;-65
2022/05/28 08:52:19;;;;;;;12.90;2.70;;;14.00;99.90;;;;;;5091573;28;20128;-65
2022/05/28 08:54:57;;;;;;;8.50;2.88;;;13.60;99.90;;;;;;5075399;28;20456;-64
2022/05/28 08:57:47;;;;;;;10.60;2.55;;;13.70;99.90;;;;;;5109077;28;20412;-65
2022/05/28 09:00:20;;;;;;;8.40;2.53;;;13.80;99.90;;;;;;5108983;28;20131;-66
2022/05/28 09:02:56;;;;;;;9.93;2.38;;;13.70;99.90;;;;;;5075305;28;20047;-65
2022/05/28 09:05:31;;;;;;;12.27;2.55;;;13.60;99.90;;;;;;5091802;28;20074;-64
2022/05/28 09:08:00;;;;;;;10.00;2.35;;;13.50;99.90;;;;;;5108791;28;20472;-65
2022/05/28 09:10:30;;;;;;;13.40;3.10;;;13.40;99.90;;;;;;5093047;28;20052;-65
2022/05/28 09:13:04;;;;;;;12.57;2.75;;;13.50;99.90;;;;;;5109006;28;20074;-64
2022/05/28 09:15:31;;;;;;;12.55;2.65;;;13.60;99.90;;;;;;5092484;28;20048;-66
2022/05/28 09:17:57;;;;;;;9.77;2.90;;;14.00;99.90;;;;;;5092769;28;20058;-65
2022/05/28 09:20:44;;;;;;;9.60;2.50;;;14.30;99.90;;;;;;5093142;28;20052;-65
2022/05/28 09:23:11;;;;;;;10.90;2.20;;;14.50;99.90;;;;;;5092937;28;20090;-66
2022/05/28 09:25:43;;;;;;;8.68;2.42;;;14.40;99.90;;;;;;5126000;27;20056;-65
2022/05/28 09:28:38;;;;;;;10.10;2.65;;;14.20;99.90;;;;;;5091855;28;20473;-66
2022/05/28 09:31:28;;;;;;;15.63;2.63;;;13.90;99.90;;;;;;5092044;28;20163;-65
2022/05/28 09:34:25;;;;;;;12.07;2.60;;;13.80;99.90;;;;;;5092905;28;20426;-65
2022/05/28 09:37:13;;;;;;;12.90;2.60;;;14.00;99.90;;;;;;5125353;27;20060;-65
2022/05/28 09:39:53;;;;;;;12.02;2.55;;;14.20;99.90;;;;;;5093480;28;20059;-65
2022/05/28 09:42:37;;;;;;;12.07;3.53;;;14.60;99.90;;;;;;5091597;28;20052;-65
2022/05/28 09:45:21;;;;;;;8.13;2.00;;;14.80;99.90;;;;;;5092616;28;20063;-65
2022/05/28 09:47:50;;;;;;;9.60;2.20;;;14.60;99.90;;;;;;5092179;28;20063;-66
2022/05/28 09:50:23;;;;;;;10.90;2.45;;;14.70;99.90;;;;;;5091527;28;20056;-65
2022/05/28 09:56:57;;;;;;;7.32;2.63;;;14.70;99.90;;;;;;5088823;28;20040;-65
2022/05/28 09:59:28;;;;;;;8.77;2.35;;;14.60;99.90;;;;;;5030233;28;20087;-66
2022/05/28 10:02:07;;;;;;;10.35;2.35;;;14.50;99.90;;;;;;5026439;28;20499;-65
2022/05/28 10:04:44;;;;;;;10.52;2.47;;;14.50;99.90;;;;;;5088272;28;20124;-65
2022/05/28 10:07:10;;;;;;;10.27;2.45;;;14.40;99.90;;;;;;5083774;28;20063;-64
2022/05/28 10:09:48;;;;;;;9.27;2.20;;;14.30;99.90;;;;;;5105378;28;20127;-63
2022/05/28 10:12:22;;;;;;;9.90;2.15;;;14.20;99.90;;;;;;5104702;28;20053;-64
2022/05/28 10:15:11;;;;;;;7.72;2.08;;;14.10;99.90;;;;;;5071849;28;20067;-63
2022/05/28 10:17:39;;;;;;;11.93;2.28;;;14.00;99.90;;;;;;5070996;28;20477;-65
2022/05/28 10:20:15;;;;;;;9.63;2.85;;;14.10;99.90;;;;;;5072485;28;20414;-63
2022/05/28 10:22:42;;;;;;;16.73;2.50;;;14.10;99.90;;;;;;5071176;28;20067;-64
2022/05/28 10:25:31;;;;;;;11.57;2.67;;;14.10;99.90;;;;;;5071029;28;20098;-65
2022/05/28 10:28:01;;;;;;;10.40;2.00;;;14.20;99.90;;;;;;5087541;28;20102;-64
2022/05/28 10:30:33;;;;;;;14.02;2.65;;;14.40;99.90;;;;;;5071027;28;20507;-65
2022/05/28 10:33:23;;;;;;;9.13;2.08;;;14.50;99.90;;;;;;5070636;28;20037;-65
2022/05/28 10:35:50;;;;;;;11.75;2.35;;;14.50;99.90;;;;;;5087332;28;20132;-65
2022/05/28 10:38:22;;;;;;;12.50;2.33;;;14.60;99.90;;;;;;5072375;28;20057;-66
2022/05/28 10:40:52;;;;;;;;;;;14.40;99.90;;;;;;5089655;28;20043;-65
2022/05/28 10:43:33;;;;;;;6.90;1.95;;;14.70;99.90;;;;;;5111630;27;19916;-67
2022/05/28 10:46:12;;;;;;;10.88;2.38;;;14.60;99.90;;;;;;5096481;28;20496;-65
2022/05/28 10:49:04;;;;;;;8.98;2.40;;;14.40;99.90;;;;;;5110945;28;20498;-65
2022/05/28 10:51:38;;;;;;;7.37;2.27;;;14.20;99.90;;;;;;5094930;28;20476;-65
2022/05/28 10:54:16;;;;;;;6.97;2.10;;;13.90;99.90;;;;;;5110241;28;20048;-65
2022/05/28 10:57:07;;;;;;;8.20;2.55;;;13.90;99.90;;;;;;5143795;27;20528;-65
2022/05/28 10:59:51;;;;;;;7.72;1.60;;;13.90;99.90;;;;;;5112468;27;20056;-65
2022/05/28 11:02:25;;;;;;;10.68;1.92;;;14.00;99.90;;;;;;5109838;28;20067;-65
2022/05/28 11:05:15;;;;;;;8.32;2.08;;;14.00;99.90;;;;;;5087243;28;20491;-64
2022/05/28 11:07:51;;;;;;;5.65;2.08;;;14.00;99.90;;;;;;5135891;27;20066;-64
2022/05/28 11:10:38;;;;;;;6.45;1.85;;;13.90;99.90;;;;;;5149500;27;20052;-65
2022/05/28 11:13:22;;;;;;;9.13;2.38;;;13.90;99.90;;;;;;5111734;28;20047;-64
2022/05/28 11:16:15;;;;;;;9.52;1.60;;;14.00;99.90;;;;;;5115653;28;20058;-64
2022/05/28 11:18:55;;;;;;;9.23;2.30;;;14.20;99.90;;;;;;5112333;27;20537;-65
2022/05/28 11:21:47;;;;;;;6.88;2.13;;;14.30;99.90;;;;;;5148701;27;20108;-65
2022/05/28 11:24:54;;;;;;;13.00;2.10;;;14.30;99.90;;;;;;5051351;28;20501;-65
2022/05/28 11:27:41;;;;;;;11.18;2.33;;;14.40;99.90;;;;;;5067960;28;20056;-64
2022/05/28 11:30:13;;;;;;;10.60;3.15;;;14.30;99.90;;;;;;5057204;28;20044;-65
2022/05/28 11:32:55;;;;;;;8.90;2.22;;;14.30;99.90;;;;;;5089840;28;20408;-64
2022/05/28 11:35:24;;;;;;;7.32;1.90;;;14.40;99.90;;;;;;5107256;28;20493;-65
2022/05/28 11:37:59;;;;;;;7.95;2.33;;;14.70;99.90;;;;;;5088434;28;20062;-63
2022/05/28 11:40:29;;;;;;;7.47;1.98;;;14.90;99.90;;;;;;5133261;27;20110;-65
2022/05/28 11:43:03;;;;;;;8.40;1.58;;;15.30;99.90;;;;;;5094837;28;20056;-65
2022/05/28 11:45:46;;;;;;;7.13;1.90;;;15.50;99.90;;;;;;5093577;28;20051;-66
2022/05/28 11:51:27;;;;;;;9.98;1.95;;;15.70;99.90;;;;;;5110370;27;20036;-64
2022/05/28 11:51:29;;;;;;;5.43;1.20;;;15.70;99.90;;;;;;5127290;27;20044;-65
2022/05/28 11:54:04;;;;;;;8.27;1.90;;;15.70;99.90;;;;;;5087010;28;20485;-66
2022/05/28 11:56:30;;;;;;;7.47;1.77;;;15.90;99.90;;;;;;5090171;28;20060;-64
2022/05/28 11:59:02;;;;;;;5.97;1.85;;;16.10;99.90;;;;;;5101044;28;20058;-65
2022/05/28 12:01:37;;;;;;;7.78;1.83;;;16.40;99.90;;;;;;5094336;28;20098;-65
2022/05/28 12:04:05;;;;;;;8.25;2.05;;;16.40;99.90;;;;;;5093599;28;20341;-64
2022/05/28 12:06:34;;;;;;;8.85;1.73;;;16.40;99.90;;;;;;5094989;28;20381;-65
2022/05/28 12:09:15;;;;;;;8.70;1.90;;;16.50;99.90;;;;;;5090461;28;20113;-65
2022/05/28 12:11:50;;;;;;;10.20;2.45;;;16.50;99.90;;;;;;5074447;28;20056;-65
2022/05/28 12:14:31;;;;;;;11.35;2.33;;;16.10;99.90;;;;;;5075484;28;20152;-65
2022/05/28 12:17:07;;;;;;;11.60;2.47;;;15.90;99.90;;;;;;5145012;27;20074;-64
2022/05/28 12:19:34;;;;;;;8.95;2.03;;;15.60;99.90;;;;;;5142956;27;20048;-65
2022/05/28 12:22:20;;;;;;;8.15;2.30;;;15.40;99.90;;;;;;5094084;28;20078;-65
2022/05/28 12:24:55;;;;;;;7.20;1.90;;;15.20;99.90;;;;;;5093304;28;20094;-66
2022/05/28 12:27:23;;;;;;;6.82;1.75;;;15.10;99.90;;;;;;5094142;28;20052;-65
2022/05/28 12:30:07;;;;;;;7.70;1.80;;;15.40;99.90;;;;;;5093280;28;20098;-66
2022/05/28 12:32:49;;;;;;;6.40;2.10;;;15.50;99.90;;;;;;5093738;28;20051;-64
2022/05/28 12:35:25;;;;;;;9.00;2.20;;;15.70;99.90;;;;;;5092242;28;20094;-64
2022/05/28 12:38:09;;;;;;;7.82;2.10;;;15.90;99.90;;;;;;5109835;28;20079;-65
2022/05/28 12:40:56;;;;;;;7.13;1.70;;;16.10;99.90;;;;;;5092399;28;20087;-66
2022/05/28 12:43:30;;;;;;;5.80;1.90;;;16.20;93.70;;;;;;5093844;28;20118;-65
2022/05/28 12:45:58;;;;;;;4.35;1.20;;;16.20;99.90;;;;;;5092125;28;20052;-64
2022/05/28 12:48:29;;;;;;;4.82;1.52;;;16.30;99.90;;;;;;5094259;28;20052;-65
2022/05/28 12:51:18;;;;;;;5.70;1.70;;;16.30;99.90;;;;;;5093334;28;20060;-65
2022/05/28 12:53:58;;;;;;;4.43;1.33;;;16.30;97.10;;;;;;5093667;28;20052;-65
2022/05/28 12:56:42;;;;;;;6.88;1.75;;;16.20;99.90;;;;;;5093716;28;20408;-65
2022/05/28 12:59:07;;;;;;;5.13;1.50;;;16.00;99.90;;;;;;5093658;28;20059;-66
2022/05/28 13:01:35;;;;;;;7.65;1.48;;;15.80;99.90;;;;;;5091771;28;20123;-66
2022/05/28 13:04:14;;;;;;;5.50;1.50;;;15.60;99.90;;;;;;5109211;28;20044;-65
2022/05/28 13:06:56;;;;;;;9.38;1.67;;;15.40;99.90;;;;;;5109557;28;20345;-65
2022/05/28 13:09:27;;;;;;;6.35;1.90;;;15.40;99.90;;;;;;5092436;28;20052;-65
2022/05/28 13:12:01;;;;;;;7.83;1.43;;;15.30;99.90;;;;;;5109220;28;20052;-66
2022/05/28 13:14:41;;;;;;;9.75;1.77;;;15.40;99.90;;;;;;5092340;28;20101;-65
2022/05/28 13:17:24;;;;;;;7.63;1.65;;;15.50;99.90;;;;;;5090963;28;20060;-64
2022/05/28 13:20:08;;;;;;;11.25;1.77;;;15.30;99.90;;;;;;5086327;28;20063;-65